Main page
METAR-TAF:

METAR-TAF

Airports :

Don Mueang International Airport

Bangkok, Thailand

latitude: 13-54-45N, longitude: 100-36-24E, elevation: 4 m

Current weather observation

The report was made 28 minutes ago, at 01:00 UTC
Wind 9 kt from the South, varying between South/Southeast and South/Southwest
Temperature 32°C
Humidity 75%
Pressure 1008 hPa
Visibility: 9000 m
Few clouds at a height of 2000 ft

METAR: VTBD 190100Z 18009KT 150V210 9000 FEW020 32/27 Q1008 NOSIG

Time: 08:28 (01:28 UTC)

Forecast

The report was made 2 hours and 28 minutes ago, at 23:00 UTC
Forecast valid from 19 at 00 UTC to 20 at 06 UTC
Wind 8 kt from the South
Visibility 10 km or more
Few clouds at a height of 2500 ft

TAF: VTBD 182300Z 1900/2006 19008KT 9999 FEW025

Weather observations and forecasts of more than 4000 airports (METAR and TAF reports).

The available stations are represented by yellow and red dots on the map.

Hover mouse over dot to see the name of the station.

Then click to see weather observations and forecasts.

To change the map : click on the green buttons with a black cross to zoom in, on the green button with a dash to zoom out, or on the green arrows for adjacent maps.


METAR-TAF: